sensor_id;sensor_type;location;lat;lon;timestamp;temperature;humidity
47490;DHT22;33226;56.996;14.584;2022-09-09T00:01:50;11.40;99.90
47490;DHT22;33226;56.996;14.584;2022-09-09T00:04:03;11.40;99.90
47490;DHT22;33226;56.996;14.584;2022-09-09T00:06:43;11.40;99.90
47490;DHT22;33226;56.996;14.584;2022-09-09T00:09:18;11.40;99.90
47490;DHT22;33226;56.996;14.584;2022-09-09T00:14:49;11.50;99.90
47490;DHT22;33226;56.996;14.584;2022-09-09T00:17:36;11.50;99.90
47490;DHT22;33226;56.996;14.584;2022-09-09T00:31:48;11.50;99.90
47490;DHT22;33226;56.996;14.584;2022-09-09T00:34:20;11.50;99.90
47490;DHT22;33226;56.996;14.584;2022-09-09T00:36:49;11.50;99.90
47490;DHT22;33226;56.996;14.584;2022-09-09T00:39:31;11.50;99.90
47490;DHT22;33226;56.996;14.584;2022-09-09T00:44:52;11.60;99.90
47490;DHT22;33226;56.996;14.584;2022-09-09T00:47:51;11.50;99.90
47490;DHT22;33226;56.996;14.584;2022-09-09T00:50:35;11.50;99.90
47490;DHT22;33226;56.996;14.584;2022-09-09T00:53:14;11.50;99.90
47490;DHT22;33226;56.996;14.584;2022-09-09T00:59:32;11.50;99.90
47490;DHT22;33226;56.996;14.584;2022-09-09T01:01:51;11.50;99.90
47490;DHT22;33226;56.996;14.584;2022-09-09T01:04:33;11.50;99.90
47490;DHT22;33226;56.996;14.584;2022-09-09T01:07:12;11.40;99.90
47490;DHT22;33226;56.996;14.584;2022-09-09T01:09:55;11.40;99.90
47490;DHT22;33226;56.996;14.584;2022-09-09T01:12:42;11.30;99.90
47490;DHT22;33226;56.996;14.584;2022-09-09T01:15:12;11.40;99.90
47490;DHT22;33226;56.996;14.584;2022-09-09T01:17:46;11.30;99.90
47490;DHT22;33226;56.996;14.584;2022-09-09T01:20:29;11.40;99.90
47490;DHT22;33226;56.996;14.584;2022-09-09T01:23:32;11.30;99.90
47490;DHT22;33226;56.996;14.584;2022-09-09T01:28:29;11.30;99.90
47490;DHT22;33226;56.996;14.584;2022-09-09T01:30:57;11.30;99.90
47490;DHT22;33226;56.996;14.584;2022-09-09T01:33:24;11.30;99.90
47490;DHT22;33226;56.996;14.584;2022-09-09T01:35:56;11.30;99.90
47490;DHT22;33226;56.996;14.584;2022-09-09T01:38:26;11.40;99.90
47490;DHT22;33226;56.996;14.584;2022-09-09T01:40:53;11.40;99.90
47490;DHT22;33226;56.996;14.584;2022-09-09T01:43:21;11.40;99.90
47490;DHT22;33226;56.996;14.584;2022-09-09T01:45:50;11.40;99.90
47490;DHT22;33226;56.996;14.584;2022-09-09T01:48:17;11.40;99.90
47490;DHT22;33226;56.996;14.584;2022-09-09T01:50:44;11.40;99.90
47490;DHT22;33226;56.996;14.584;2022-09-09T01:53:11;11.40;99.90
47490;DHT22;33226;56.996;14.584;2022-09-09T01:55:40;11.40;99.90
47490;DHT22;33226;56.996;14.584;2022-09-09T02:01:02;11.40;99.90
47490;DHT22;33226;56.996;14.584;2022-09-09T02:03:32;11.40;99.90
47490;DHT22;33226;56.996;14.584;2022-09-09T02:06:25;11.40;99.90
47490;DHT22;33226;56.996;14.584;2022-09-09T02:09:00;11.30;99.90
47490;DHT22;33226;56.996;14.584;2022-09-09T02:11:28;11.40;99.90
47490;DHT22;33226;56.996;14.584;2022-09-09T02:13:59;11.40;99.90
47490;DHT22;33226;56.996;14.584;2022-09-09T02:19:02;11.40;99.90
47490;DHT22;33226;56.996;14.584;2022-09-09T02:21:31;11.40;99.90
47490;DHT22;33226;56.996;14.584;2022-09-09T02:23:59;11.40;99.90
47490;DHT22;33226;56.996;14.584;2022-09-09T02:26:26;11.50;99.90
47490;DHT22;33226;56.996;14.584;2022-09-09T02:28:54;11.40;99.90
47490;DHT22;33226;56.996;14.584;2022-09-09T02:31:22;11.50;99.90
47490;DHT22;33226;56.996;14.584;2022-09-09T02:33:55;11.50;99.90
47490;DHT22;33226;56.996;14.584;2022-09-09T02:36:24;11.60;99.90
47490;DHT22;33226;56.996;14.584;2022-09-09T02:38:52;11.50;99.90
47490;DHT22;33226;56.996;14.584;2022-09-09T02:41:34;11.60;99.90
47490;DHT22;33226;56.996;14.584;2022-09-09T02:44:00;11.50;99.90
47490;DHT22;33226;56.996;14.584;2022-09-09T02:46:55;11.60;99.90
47490;DHT22;33226;56.996;14.584;2022-09-09T02:52:38;11.70;99.90
47490;DHT22;33226;56.996;14.584;2022-09-09T02:55:27;11.70;99.90
47490;DHT22;33226;56.996;14.584;2022-09-09T02:57:55;11.70;99.90
47490;DHT22;33226;56.996;14.584;2022-09-09T03:00:24;11.80;99.90
47490;DHT22;33226;56.996;14.584;2022-09-09T03:02:50;11.80;99.90
47490;DHT22;33226;56.996;14.584;2022-09-09T03:05:16;11.90;99.90
47490;DHT22;33226;56.996;14.584;2022-09-09T03:07:42;11.80;99.90
47490;DHT22;33226;56.996;14.584;2022-09-09T03:10:08;11.80;99.90
47490;DHT22;33226;56.996;14.584;2022-09-09T03:12:33;11.80;99.90
47490;DHT22;33226;56.996;14.584;2022-09-09T03:14:59;11.90;99.90
47490;DHT22;33226;56.996;14.584;2022-09-09T03:17:24;11.90;99.90
47490;DHT22;33226;56.996;14.584;2022-09-09T03:19:51;11.90;99.90
47490;DHT22;33226;56.996;14.584;2022-09-09T03:22:18;11.90;99.90
47490;DHT22;33226;56.996;14.584;2022-09-09T03:24:43;12.00;99.90
47490;DHT22;33226;56.996;14.584;2022-09-09T03:27:09;12.00;99.90
47490;DHT22;33226;56.996;14.584;2022-09-09T03:29:34;11.90;99.90
47490;DHT22;33226;56.996;14.584;2022-09-09T03:32:00;11.90;99.90
47490;DHT22;33226;56.996;14.584;2022-09-09T03:34:26;12.00;99.90
47490;DHT22;33226;56.996;14.584;2022-09-09T03:36:51;12.00;99.90
47490;DHT22;33226;56.996;14.584;2022-09-09T03:39:17;12.00;99.90
47490;DHT22;33226;56.996;14.584;2022-09-09T03:41:42;12.10;99.90
47490;DHT22;33226;56.996;14.584;2022-09-09T03:44:11;12.10;99.90
47490;DHT22;33226;56.996;14.584;2022-09-09T03:46:37;12.10;99.90
47490;DHT22;33226;56.996;14.584;2022-09-09T03:49:03;12.10;99.90
47490;DHT22;33226;56.996;14.584;2022-09-09T03:51:29;12.20;99.90
47490;DHT22;33226;56.996;14.584;2022-09-09T03:53:55;12.10;99.90
47490;DHT22;33226;56.996;14.584;2022-09-09T03:56:23;12.20;99.90
47490;DHT22;33226;56.996;14.584;2022-09-09T03:58:49;12.20;99.90
47490;DHT22;33226;56.996;14.584;2022-09-09T04:01:15;12.20;99.90
47490;DHT22;33226;56.996;14.584;2022-09-09T04:03:43;12.30;99.90
47490;DHT22;33226;56.996;14.584;2022-09-09T04:06:10;12.30;99.90
47490;DHT22;33226;56.996;14.584;2022-09-09T04:08:38;12.30;99.90
47490;DHT22;33226;56.996;14.584;2022-09-09T04:11:05;12.30;99.90
47490;DHT22;33226;56.996;14.584;2022-09-09T04:13:32;12.30;99.90
47490;DHT22;33226;56.996;14.584;2022-09-09T04:16:00;12.40;99.90
47490;DHT22;33226;56.996;14.584;2022-09-09T04:18:27;12.50;99.90
47490;DHT22;33226;56.996;14.584;2022-09-09T04:20:54;12.50;99.90
47490;DHT22;33226;56.996;14.584;2022-09-09T04:23:23;12.60;99.90
47490;DHT22;33226;56.996;14.584;2022-09-09T04:25:52;12.60;99.90
47490;DHT22;33226;56.996;14.584;2022-09-09T04:28:19;12.60;99.90
47490;DHT22;33226;56.996;14.584;2022-09-09T04:30:45;12.60;99.90
47490;DHT22;33226;56.996;14.584;2022-09-09T04:33:12;12.70;99.90
47490;DHT22;33226;56.996;14.584;2022-09-09T04:35:39;12.70;99.90
47490;DHT22;33226;56.996;14.584;2022-09-09T04:38:05;12.70;99.90
47490;DHT22;33226;56.996;14.584;2022-09-09T04:40:34;12.80;99.90
47490;DHT22;33226;56.996;14.584;2022-09-09T04:43:01;12.90;99.90
47490;DHT22;33226;56.996;14.584;2022-09-09T04:45:30;12.90;99.90
47490;DHT22;33226;56.996;14.584;2022-09-09T04:47:56;13.00;99.90
47490;DHT22;33226;56.996;14.584;2022-09-09T04:50:22;13.00;99.90
47490;DHT22;33226;56.996;14.584;2022-09-09T04:52:47;13.00;99.90
47490;DHT22;33226;56.996;14.584;2022-09-09T04:55:13;13.10;99.90
47490;DHT22;33226;56.996;14.584;2022-09-09T04:57:40;13.20;99.90
47490;DHT22;33226;56.996;14.584;2022-09-09T05:00:06;13.20;99.90
47490;DHT22;33226;56.996;14.584;2022-09-09T05:02:32;13.20;99.90
47490;DHT22;33226;56.996;14.584;2022-09-09T05:04:58;13.30;99.90
47490;DHT22;33226;56.996;14.584;2022-09-09T05:07:24;13.30;99.90
47490;DHT22;33226;56.996;14.584;2022-09-09T05:09:52;13.40;99.90
47490;DHT22;33226;56.996;14.584;2022-09-09T05:12:18;13.40;99.90
47490;DHT22;33226;56.996;14.584;2022-09-09T05:14:43;13.40;99.90
47490;DHT22;33226;56.996;14.584;2022-09-09T05:17:10;13.40;99.90
47490;DHT22;33226;56.996;14.584;2022-09-09T05:19:36;13.40;99.90
47490;DHT22;33226;56.996;14.584;2022-09-09T05:22:02;13.50;99.90
47490;DHT22;33226;56.996;14.584;2022-09-09T05:24:27;13.50;99.90
47490;DHT22;33226;56.996;14.584;2022-09-09T05:26:53;13.50;99.90
47490;DHT22;33226;56.996;14.584;2022-09-09T05:29:19;13.60;99.90
47490;DHT22;33226;56.996;14.584;2022-09-09T05:31:45;13.60;99.90
47490;DHT22;33226;56.996;14.584;2022-09-09T05:34:12;13.60;99.90
47490;DHT22;33226;56.996;14.584;2022-09-09T05:36:37;13.70;99.90
47490;DHT22;33226;56.996;14.584;2022-09-09T05:39:04;13.70;99.90
47490;DHT22;33226;56.996;14.584;2022-09-09T05:41:29;13.70;99.90
47490;DHT22;33226;56.996;14.584;2022-09-09T05:43:55;13.70;99.90
47490;DHT22;33226;56.996;14.584;2022-09-09T05:46:23;13.80;99.90
47490;DHT22;33226;56.996;14.584;2022-09-09T05:48:49;13.80;99.90
47490;DHT22;33226;56.996;14.584;2022-09-09T05:51:25;13.80;99.90
47490;DHT22;33226;56.996;14.584;2022-09-09T05:53:52;13.90;99.90
47490;DHT22;33226;56.996;14.584;2022-09-09T05:56:28;13.90;99.90
47490;DHT22;33226;56.996;14.584;2022-09-09T05:58:55;13.90;99.90
47490;DHT22;33226;56.996;14.584;2022-09-09T06:01:32;13.90;99.90
47490;DHT22;33226;56.996;14.584;2022-09-09T06:03:58;13.90;99.90
47490;DHT22;33226;56.996;14.584;2022-09-09T06:06:31;14.00;99.90
47490;DHT22;33226;56.996;14.584;2022-09-09T06:08:57;14.00;99.90
47490;DHT22;33226;56.996;14.584;2022-09-09T06:11:26;14.00;99.90
47490;DHT22;33226;56.996;14.584;2022-09-09T06:13:52;14.00;99.90
47490;DHT22;33226;56.996;14.584;2022-09-09T06:16:23;14.10;99.90
47490;DHT22;33226;56.996;14.584;2022-09-09T06:18:50;14.10;99.90
47490;DHT22;33226;56.996;14.584;2022-09-09T06:21:26;14.10;99.90
47490;DHT22;33226;56.996;14.584;2022-09-09T06:23:52;14.20;99.90
47490;DHT22;33226;56.996;14.584;2022-09-09T06:26:20;14.10;99.90
47490;DHT22;33226;56.996;14.584;2022-09-09T06:28:48;14.10;99.90
47490;DHT22;33226;56.996;14.584;2022-09-09T06:31:16;14.10;99.90
47490;DHT22;33226;56.996;14.584;2022-09-09T06:33:52;14.20;99.90
47490;DHT22;33226;56.996;14.584;2022-09-09T06:36:19;14.10;99.90
47490;DHT22;33226;56.996;14.584;2022-09-09T06:38:45;14.20;99.90
47490;DHT22;33226;56.996;14.584;2022-09-09T06:41:13;14.20;99.90
47490;DHT22;33226;56.996;14.584;2022-09-09T06:43:39;14.30;99.90
47490;DHT22;33226;56.996;14.584;2022-09-09T06:46:12;14.30;99.90
47490;DHT22;33226;56.996;14.584;2022-09-09T06:48:41;14.30;99.90
47490;DHT22;33226;56.996;14.584;2022-09-09T06:51:10;14.30;99.90
47490;DHT22;33226;56.996;14.584;2022-09-09T06:53:37;14.40;99.90
47490;DHT22;33226;56.996;14.584;2022-09-09T06:58:41;14.50;99.90
47490;DHT22;33226;56.996;14.584;2022-09-09T07:01:11;14.50;99.90
47490;DHT22;33226;56.996;14.584;2022-09-09T07:03:38;14.60;99.90
47490;DHT22;33226;56.996;14.584;2022-09-09T07:06:05;14.60;99.90
47490;DHT22;33226;56.996;14.584;2022-09-09T07:08:31;14.60;99.90
47490;DHT22;33226;56.996;14.584;2022-09-09T07:11:05;14.60;99.90
47490;DHT22;33226;56.996;14.584;2022-09-09T07:13:31;14.60;99.90
47490;DHT22;33226;56.996;14.584;2022-09-09T07:16:10;14.60;99.90
47490;DHT22;33226;56.996;14.584;2022-09-09T07:18:36;14.70;99.90
47490;DHT22;33226;56.996;14.584;2022-09-09T07:21:03;14.70;99.90
47490;DHT22;33226;56.996;14.584;2022-09-09T07:23:30;14.70;99.90
47490;DHT22;33226;56.996;14.584;2022-09-09T07:25:56;14.70;99.90
47490;DHT22;33226;56.996;14.584;2022-09-09T07:28:23;14.70;99.90
47490;DHT22;33226;56.996;14.584;2022-09-09T07:30:56;14.70;99.90
47490;DHT22;33226;56.996;14.584;2022-09-09T07:33:23;14.70;99.90
47490;DHT22;33226;56.996;14.584;2022-09-09T07:35:49;14.80;99.90
47490;DHT22;33226;56.996;14.584;2022-09-09T07:38:15;14.80;99.90
47490;DHT22;33226;56.996;14.584;2022-09-09T07:40:41;14.80;99.90
47490;DHT22;33226;56.996;14.584;2022-09-09T07:43:06;14.80;99.90
47490;DHT22;33226;56.996;14.584;2022-09-09T07:45:33;14.80;99.90
47490;DHT22;33226;56.996;14.584;2022-09-09T07:47:59;14.90;99.90
47490;DHT22;33226;56.996;14.584;2022-09-09T07:50:25;14.90;99.90
47490;DHT22;33226;56.996;14.584;2022-09-09T07:52:52;14.80;99.90
47490;DHT22;33226;56.996;14.584;2022-09-09T07:55:19;14.80;99.90
47490;DHT22;33226;56.996;14.584;2022-09-09T07:57:45;14.80;99.90
47490;DHT22;33226;56.996;14.584;2022-09-09T08:00:11;14.80;99.90
47490;DHT22;33226;56.996;14.584;2022-09-09T08:02:37;14.80;99.90
47490;DHT22;33226;56.996;14.584;2022-09-09T08:05:03;14.80;99.90
47490;DHT22;33226;56.996;14.584;2022-09-09T08:07:28;14.80;99.90
47490;DHT22;33226;56.996;14.584;2022-09-09T08:09:54;14.80;99.90
47490;DHT22;33226;56.996;14.584;2022-09-09T08:12:21;14.80;99.90
47490;DHT22;33226;56.996;14.584;2022-09-09T08:14:47;14.80;99.90
47490;DHT22;33226;56.996;14.584;2022-09-09T08:17:14;14.90;99.90
47490;DHT22;33226;56.996;14.584;2022-09-09T08:19:39;14.90;99.90
47490;DHT22;33226;56.996;14.584;2022-09-09T08:22:06;15.00;99.90
47490;DHT22;33226;56.996;14.584;2022-09-09T08:24:33;14.90;99.90
47490;DHT22;33226;56.996;14.584;2022-09-09T08:26:58;15.00;99.90
47490;DHT22;33226;56.996;14.584;2022-09-09T08:29:25;15.10;99.90
47490;DHT22;33226;56.996;14.584;2022-09-09T08:31:53;15.10;99.90
47490;DHT22;33226;56.996;14.584;2022-09-09T08:34:20;15.00;99.90
47490;DHT22;33226;56.996;14.584;2022-09-09T08:36:47;15.00;99.90
47490;DHT22;33226;56.996;14.584;2022-09-09T08:39:18;15.00;99.90
47490;DHT22;33226;56.996;14.584;2022-09-09T08:47:45;14.70;99.90
47490;DHT22;33226;56.996;14.584;2022-09-09T08:56:01;14.70;99.90
47490;DHT22;33226;56.996;14.584;2022-09-09T08:58:30;14.70;99.90
47490;DHT22;33226;56.996;14.584;2022-09-09T09:06:05;14.50;99.90
47490;DHT22;33226;56.996;14.584;2022-09-09T09:08:51;14.40;99.90
47490;DHT22;33226;56.996;14.584;2022-09-09T09:11:20;14.40;99.90
47490;DHT22;33226;56.996;14.584;2022-09-09T09:13:57;14.30;99.90
47490;DHT22;33226;56.996;14.584;2022-09-09T09:18:55;14.20;99.90
47490;DHT22;33226;56.996;14.584;2022-09-09T09:21:34;14.20;99.90
47490;DHT22;33226;56.996;14.584;2022-09-09T09:24:01;14.10;99.90
47490;DHT22;33226;56.996;14.584;2022-09-09T09:26:35;14.10;99.90
47490;DHT22;33226;56.996;14.584;2022-09-09T09:29:12;14.00;99.90
47490;DHT22;33226;56.996;14.584;2022-09-09T09:31:37;14.00;99.90
47490;DHT22;33226;56.996;14.584;2022-09-09T09:34:03;13.90;99.90
47490;DHT22;33226;56.996;14.584;2022-09-09T09:36:44;13.90;99.90
47490;DHT22;33226;56.996;14.584;2022-09-09T09:39:26;13.90;99.90
47490;DHT22;33226;56.996;14.584;2022-09-09T09:41:53;13.90;99.90
47490;DHT22;33226;56.996;14.584;2022-09-09T09:44:31;13.90;99.90
47490;DHT22;33226;56.996;14.584;2022-09-09T09:47:07;13.90;99.90
47490;DHT22;33226;56.996;14.584;2022-09-09T09:49:33;13.80;99.90
47490;DHT22;33226;56.996;14.584;2022-09-09T09:52:03;13.80;99.90
47490;DHT22;33226;56.996;14.584;2022-09-09T09:54:31;13.80;99.90
47490;DHT22;33226;56.996;14.584;2022-09-09T09:57:11;13.80;99.90
47490;DHT22;33226;56.996;14.584;2022-09-09T09:59:37;13.80;99.90
47490;DHT22;33226;56.996;14.584;2022-09-09T10:02:21;13.70;99.90
47490;DHT22;33226;56.996;14.584;2022-09-09T10:05:01;13.70;99.90
47490;DHT22;33226;56.996;14.584;2022-09-09T10:07:27;13.70;99.90
47490;DHT22;33226;56.996;14.584;2022-09-09T10:09:57;13.80;99.90
47490;DHT22;33226;56.996;14.584;2022-09-09T10:15:32;13.80;99.90
47490;DHT22;33226;56.996;14.584;2022-09-09T10:20:37;13.70;99.90
47490;DHT22;33226;56.996;14.584;2022-09-09T10:23:33;13.70;99.90
47490;DHT22;33226;56.996;14.584;2022-09-09T10:29:06;13.70;99.90
47490;DHT22;33226;56.996;14.584;2022-09-09T10:32:07;13.70;99.90
47490;DHT22;33226;56.996;14.584;2022-09-09T10:42:45;13.60;99.90
47490;DHT22;33226;56.996;14.584;2022-09-09T10:45:38;13.60;99.90
47490;DHT22;33226;56.996;14.584;2022-09-09T10:48:22;13.60;99.90
47490;DHT22;33226;56.996;14.584;2022-09-09T10:56:35;13.50;99.90
47490;DHT22;33226;56.996;14.584;2022-09-09T10:59:14;13.60;99.90
47490;DHT22;33226;56.996;14.584;2022-09-09T11:01:49;13.50;99.90
47490;DHT22;33226;56.996;14.584;2022-09-09T11:04:35;13.50;99.90
47490;DHT22;33226;56.996;14.584;2022-09-09T11:07:09;13.50;99.90
47490;DHT22;33226;56.996;14.584;2022-09-09T11:09:42;13.50;99.90
47490;DHT22;33226;56.996;14.584;2022-09-09T11:12:13;13.50;99.90
47490;DHT22;33226;56.996;14.584;2022-09-09T11:14:48;13.50;99.90
47490;DHT22;33226;56.996;14.584;2022-09-09T11:17:18;13.50;99.90
47490;DHT22;33226;56.996;14.584;2022-09-09T11:19:45;13.50;99.90
47490;DHT22;33226;56.996;14.584;2022-09-09T11:25:10;13.50;99.90
47490;DHT22;33226;56.996;14.584;2022-09-09T11:30:52;13.50;99.90
47490;DHT22;33226;56.996;14.584;2022-09-09T11:39:41;13.50;99.90
47490;DHT22;33226;56.996;14.584;2022-09-09T11:41:45;13.50;99.90
47490;DHT22;33226;56.996;14.584;2022-09-09T11:44:13;13.50;99.90
47490;DHT22;33226;56.996;14.584;2022-09-09T11:46:42;13.50;99.90
47490;DHT22;33226;56.996;14.584;2022-09-09T11:49:29;13.40;99.90
47490;DHT22;33226;56.996;14.584;2022-09-09T11:52:37;13.40;99.90
47490;DHT22;33226;56.996;14.584;2022-09-09T11:55:11;13.50;99.90
47490;DHT22;33226;56.996;14.584;2022-09-09T11:57:38;13.50;99.90
47490;DHT22;33226;56.996;14.584;2022-09-09T12:00:05;13.50;99.90
47490;DHT22;33226;56.996;14.584;2022-09-09T12:02:31;13.50;99.90
47490;DHT22;33226;56.996;14.584;2022-09-09T12:05:07;13.40;99.90
47490;DHT22;33226;56.996;14.584;2022-09-09T12:07:59;13.50;99.90
47490;DHT22;33226;56.996;14.584;2022-09-09T12:10:29;13.50;99.90
47490;DHT22;33226;56.996;14.584;2022-09-09T12:13:18;13.50;99.90
47490;DHT22;33226;56.996;14.584;2022-09-09T12:15:55;13.50;99.90
47490;DHT22;33226;56.996;14.584;2022-09-09T12:18:38;13.40;99.90
47490;DHT22;33226;56.996;14.584;2022-09-09T12:24:08;13.40;99.90
47490;DHT22;33226;56.996;14.584;2022-09-09T12:26:55;13.40;99.90
47490;DHT22;33226;56.996;14.584;2022-09-09T12:32:22;13.40;99.90
47490;DHT22;33226;56.996;14.584;2022-09-09T12:37:53;13.50;99.90
47490;DHT22;33226;56.996;14.584;2022-09-09T12:40:30;13.50;99.90
47490;DHT22;33226;56.996;14.584;2022-09-09T12:42:57;13.50;99.90
47490;DHT22;33226;56.996;14.584;2022-09-09T12:45:29;13.60;99.90
47490;DHT22;33226;56.996;14.584;2022-09-09T12:50:33;13.60;99.90
47490;DHT22;33226;56.996;14.584;2022-09-09T12:55:59;13.60;99.90
47490;DHT22;33226;56.996;14.584;2022-09-09T12:58:26;13.60;99.90
47490;DHT22;33226;56.996;14.584;2022-09-09T13:00:55;13.60;99.90
47490;DHT22;33226;56.996;14.584;2022-09-09T13:03:22;13.60;99.90
47490;DHT22;33226;56.996;14.584;2022-09-09T13:05:49;13.60;99.90
47490;DHT22;33226;56.996;14.584;2022-09-09T13:08:15;13.60;99.90
47490;DHT22;33226;56.996;14.584;2022-09-09T13:10:58;13.60;99.90
47490;DHT22;33226;56.996;14.584;2022-09-09T13:13:31;13.50;99.90
47490;DHT22;33226;56.996;14.584;2022-09-09T13:16:02;13.60;99.90
47490;DHT22;33226;56.996;14.584;2022-09-09T13:18:31;13.60;99.90
47490;DHT22;33226;56.996;14.584;2022-09-09T13:20:59;13.60;99.90
47490;DHT22;33226;56.996;14.584;2022-09-09T13:23:34;13.60;99.90
47490;DHT22;33226;56.996;14.584;2022-09-09T13:26:06;13.50;99.90
47490;DHT22;33226;56.996;14.584;2022-09-09T13:28:46;13.50;99.90
47490;DHT22;33226;56.996;14.584;2022-09-09T13:31:30;13.50;99.90
47490;DHT22;33226;56.996;14.584;2022-09-09T13:33:56;13.50;99.90
47490;DHT22;33226;56.996;14.584;2022-09-09T13:36:33;13.50;99.90
47490;DHT22;33226;56.996;14.584;2022-09-09T13:39:02;13.50;99.90
47490;DHT22;33226;56.996;14.584;2022-09-09T13:41:43;13.50;99.90
47490;DHT22;33226;56.996;14.584;2022-09-09T13:44:25;13.50;99.90
47490;DHT22;33226;56.996;14.584;2022-09-09T13:47:02;13.50;99.90
47490;DHT22;33226;56.996;14.584;2022-09-09T13:49:29;13.50;99.90
47490;DHT22;33226;56.996;14.584;2022-09-09T13:52:05;13.50;99.90
47490;DHT22;33226;56.996;14.584;2022-09-09T13:54:34;13.50;99.90
47490;DHT22;33226;56.996;14.584;2022-09-09T13:57:00;13.50;99.90
47490;DHT22;33226;56.996;14.584;2022-09-09T13:59:26;13.50;99.90
47490;DHT22;33226;56.996;14.584;2022-09-09T14:01:52;13.50;99.90
47490;DHT22;33226;56.996;14.584;2022-09-09T14:04:19;13.50;99.90
47490;DHT22;33226;56.996;14.584;2022-09-09T14:06:47;13.50;99.90
47490;DHT22;33226;56.996;14.584;2022-09-09T14:09:15;13.50;99.90
47490;DHT22;33226;56.996;14.584;2022-09-09T14:11:42;13.40;99.90
47490;DHT22;33226;56.996;14.584;2022-09-09T14:14:08;13.50;99.90
47490;DHT22;33226;56.996;14.584;2022-09-09T14:16:34;13.40;99.90
47490;DHT22;33226;56.996;14.584;2022-09-09T14:19:00;13.40;99.90
47490;DHT22;33226;56.996;14.584;2022-09-09T14:21:27;13.40;99.90
47490;DHT22;33226;56.996;14.584;2022-09-09T14:23:53;13.40;99.90
47490;DHT22;33226;56.996;14.584;2022-09-09T14:26:20;13.30;99.90
47490;DHT22;33226;56.996;14.584;2022-09-09T14:28:47;13.40;99.90
47490;DHT22;33226;56.996;14.584;2022-09-09T14:31:13;13.30;99.90
47490;DHT22;33226;56.996;14.584;2022-09-09T14:33:39;13.30;99.90
47490;DHT22;33226;56.996;14.584;2022-09-09T14:36:05;13.30;99.90
47490;DHT22;33226;56.996;14.584;2022-09-09T14:38:36;13.30;99.90
47490;DHT22;33226;56.996;14.584;2022-09-09T14:41:06;13.30;99.90
47490;DHT22;33226;56.996;14.584;2022-09-09T14:43:32;13.30;99.90
47490;DHT22;33226;56.996;14.584;2022-09-09T14:46:07;13.30;99.90
47490;DHT22;33226;56.996;14.584;2022-09-09T14:48:34;13.30;99.90
47490;DHT22;33226;56.996;14.584;2022-09-09T14:51:07;13.30;99.90
47490;DHT22;33226;56.996;14.584;2022-09-09T14:53:32;13.30;99.90
47490;DHT22;33226;56.996;14.584;2022-09-09T14:58:31;13.30;99.90
47490;DHT22;33226;56.996;14.584;2022-09-09T15:01:05;13.30;99.90
47490;DHT22;33226;56.996;14.584;2022-09-09T15:03:31;13.30;99.90
47490;DHT22;33226;56.996;14.584;2022-09-09T15:05:57;13.30;99.90
47490;DHT22;33226;56.996;14.584;2022-09-09T15:08:24;13.30;99.90
47490;DHT22;33226;56.996;14.584;2022-09-09T15:10:49;13.30;99.90
47490;DHT22;33226;56.996;14.584;2022-09-09T15:13:16;13.30;99.90
47490;DHT22;33226;56.996;14.584;2022-09-09T15:15:44;13.30;99.90
47490;DHT22;33226;56.996;14.584;2022-09-09T15:18:10;13.30;99.90
47490;DHT22;33226;56.996;14.584;2022-09-09T15:20:35;13.30;99.90
47490;DHT22;33226;56.996;14.584;2022-09-09T15:23:03;13.20;99.90
47490;DHT22;33226;56.996;14.584;2022-09-09T15:25:28;13.30;99.90
47490;DHT22;33226;56.996;14.584;2022-09-09T15:27:54;13.30;99.90
47490;DHT22;33226;56.996;14.584;2022-09-09T15:30:21;13.20;99.90
47490;DHT22;33226;56.996;14.584;2022-09-09T15:32:47;13.30;99.90
47490;DHT22;33226;56.996;14.584;2022-09-09T15:35:12;13.30;99.90
47490;DHT22;33226;56.996;14.584;2022-09-09T15:37:38;13.30;99.90
47490;DHT22;33226;56.996;14.584;2022-09-09T15:40:04;13.30;99.90
47490;DHT22;33226;56.996;14.584;2022-09-09T15:42:29;13.20;99.90
47490;DHT22;33226;56.996;14.584;2022-09-09T15:44:55;13.30;99.90
47490;DHT22;33226;56.996;14.584;2022-09-09T15:47:21;13.30;99.90
47490;DHT22;33226;56.996;14.584;2022-09-09T15:49:46;13.30;99.90
47490;DHT22;33226;56.996;14.584;2022-09-09T15:52:12;13.20;99.90
47490;DHT22;33226;56.996;14.584;2022-09-09T15:54:38;13.20;99.90
47490;DHT22;33226;56.996;14.584;2022-09-09T15:57:06;13.10;99.90
47490;DHT22;33226;56.996;14.584;2022-09-09T15:59:32;13.10;99.90
47490;DHT22;33226;56.996;14.584;2022-09-09T16:01:59;13.10;99.90
47490;DHT22;33226;56.996;14.584;2022-09-09T16:04:28;13.10;99.90
47490;DHT22;33226;56.996;14.584;2022-09-09T16:07:00;13.10;99.90
47490;DHT22;33226;56.996;14.584;2022-09-09T16:09:27;13.10;99.90
47490;DHT22;33226;56.996;14.584;2022-09-09T16:11:56;13.10;99.90
47490;DHT22;33226;56.996;14.584;2022-09-09T16:14:21;13.10;99.90
47490;DHT22;33226;56.996;14.584;2022-09-09T16:16:47;13.10;99.90
47490;DHT22;33226;56.996;14.584;2022-09-09T16:19:13;13.10;99.90
47490;DHT22;33226;56.996;14.584;2022-09-09T16:21:41;13.10;99.90
47490;DHT22;33226;56.996;14.584;2022-09-09T16:24:09;13.10;99.90
47490;DHT22;33226;56.996;14.584;2022-09-09T16:26:36;13.10;99.90
47490;DHT22;33226;56.996;14.584;2022-09-09T16:29:03;13.10;99.90
47490;DHT22;33226;56.996;14.584;2022-09-09T16:31:30;13.00;99.90
47490;DHT22;33226;56.996;14.584;2022-09-09T16:33:57;13.00;99.90
47490;DHT22;33226;56.996;14.584;2022-09-09T16:36:27;13.00;99.90
47490;DHT22;33226;56.996;14.584;2022-09-09T16:39:04;13.00;99.90
47490;DHT22;33226;56.996;14.584;2022-09-09T16:41:31;13.00;99.90
47490;DHT22;33226;56.996;14.584;2022-09-09T16:44:02;13.00;99.90
47490;DHT22;33226;56.996;14.584;2022-09-09T16:46:29;13.00;99.90
47490;DHT22;33226;56.996;14.584;2022-09-09T16:48:59;13.00;99.90
47490;DHT22;33226;56.996;14.584;2022-09-09T16:51:37;13.00;99.90
47490;DHT22;33226;56.996;14.584;2022-09-09T16:54:05;13.00;99.90
47490;DHT22;33226;56.996;14.584;2022-09-09T16:56:40;13.00;99.90
47490;DHT22;33226;56.996;14.584;2022-09-09T16:59:11;13.00;99.90
47490;DHT22;33226;56.996;14.584;2022-09-09T17:01:38;13.00;99.90
47490;DHT22;33226;56.996;14.584;2022-09-09T17:04:07;13.00;99.90
47490;DHT22;33226;56.996;14.584;2022-09-09T17:06:35;13.00;99.90
47490;DHT22;33226;56.996;14.584;2022-09-09T17:09:04;13.00;99.90
47490;DHT22;33226;56.996;14.584;2022-09-09T17:11:30;13.00;99.90
47490;DHT22;33226;56.996;14.584;2022-09-09T17:13:57;13.00;99.90
47490;DHT22;33226;56.996;14.584;2022-09-09T17:16:25;13.00;99.90
47490;DHT22;33226;56.996;14.584;2022-09-09T17:18:53;13.00;99.90